createdAt,value
2023-01-27T00:03:12.386Z,-0.90
2023-01-27T00:08:14.344Z,-0.90
2023-01-27T00:13:17.433Z,-0.90
2023-01-27T00:18:19.581Z,-0.80
2023-01-27T00:23:23.186Z,-0.80
2023-01-27T00:28:26.451Z,-0.80
2023-01-27T00:33:28.637Z,-0.90
2023-01-27T00:38:32.815Z,-0.80
2023-01-27T00:43:36.041Z,-0.80
2023-01-27T00:48:39.482Z,-0.80
2023-01-27T00:53:41.777Z,-0.70
2023-01-27T00:58:45.121Z,-0.70
2023-01-27T01:03:47.195Z,-0.70
2023-01-27T01:08:48.977Z,-0.60
2023-01-27T01:13:54.343Z,-0.30
2023-01-27T01:18:58.344Z,-0.40
2023-01-27T01:24:00.193Z,-0.30
2023-01-27T01:29:03.406Z,-0.40
2023-01-27T01:34:05.167Z,-0.50
2023-01-27T01:39:06.956Z,-0.50
2023-01-27T01:44:21.431Z,-0.40
2023-01-27T01:49:28.958Z,-0.30
2023-01-27T01:54:34.813Z,-0.20
2023-01-27T01:59:42.569Z,-0.30
2023-01-27T02:04:48.736Z,-0.20
2023-01-27T02:09:50.488Z,-0.20
2023-01-27T02:14:54.480Z,-0.30
2023-01-27T02:20:03.057Z,-0.30
2023-01-27T02:25:11.921Z,-0.40
2023-01-27T02:30:15.402Z,-0.40
2023-01-27T02:35:21.529Z,-0.40
2023-01-27T02:40:24.917Z,-0.50
2023-01-27T02:45:28.249Z,-0.60
2023-01-27T02:50:59.307Z,-0.50
2023-01-27T02:56:01.064Z,-0.50
2023-01-27T03:01:04.680Z,-0.40
2023-01-27T03:06:06.481Z,-0.40
2023-01-27T03:11:08.978Z,-0.50
2023-01-27T03:16:14.538Z,-0.50
2023-01-27T03:21:17.987Z,-0.60
2023-01-27T03:26:19.705Z,-0.50
2023-01-27T03:31:22.915Z,-0.50
2023-01-27T03:36:24.732Z,-0.50
2023-01-27T03:41:26.565Z,-0.50
2023-01-27T03:46:30.412Z,-0.50
2023-01-27T03:51:32.229Z,-0.50
2023-01-27T03:56:33.990Z,-0.50
2023-01-27T04:01:37.117Z,-0.50
2023-01-27T04:06:41.743Z,-0.50
2023-01-27T04:11:43.360Z,-0.40
2023-01-27T04:16:46.489Z,-0.50
2023-01-27T04:21:48.809Z,-0.40
2023-01-27T04:26:53.407Z,-0.30
2023-01-27T04:31:56.904Z,-0.10
2023-01-27T04:36:59.175Z,-0.20
2023-01-27T04:42:49.583Z,-0.30
2023-01-27T04:47:52.727Z,-0.30
2023-01-27T04:52:54.484Z,-0.30
2023-01-27T04:57:56.190Z,-0.30
2023-01-27T05:02:59.285Z,-0.30
2023-01-27T05:08:06.129Z,-0.10
2023-01-27T05:13:14.143Z,0.10
2023-01-27T05:18:17.489Z,0.20
2023-01-27T05:23:19.233Z,0.30
2023-01-27T05:28:20.888Z,0.20
2023-01-27T05:33:23.909Z,0.20
2023-01-27T05:38:25.581Z,0.30
2023-01-27T05:43:28.031Z,0.40
2023-01-27T05:48:31.162Z,0.30
2023-01-27T05:53:33.906Z,0.20
2023-01-27T05:58:35.642Z,0.20
2023-01-27T06:03:39.379Z,0.40
2023-01-27T06:08:41.745Z,0.40
2023-01-27T06:13:43.656Z,0.40
2023-01-27T06:18:47.239Z,0.30
2023-01-27T06:23:49.537Z,0.30
2023-01-27T06:28:51.503Z,0.20
2023-01-27T06:33:54.788Z,0.20
2023-01-27T06:38:56.555Z,0.30
2023-01-27T06:43:58.284Z,0.30
2023-01-27T06:49:01.391Z,0.20
2023-01-27T06:54:03.198Z,0.20
2023-01-27T06:59:04.898Z,0.10
2023-01-27T07:04:08.027Z,0.10
2023-01-27T07:09:09.739Z,0.10
2023-01-27T07:14:11.513Z,0.10
2023-01-27T07:19:14.804Z,0.20
2023-01-27T07:24:16.582Z,0.20
2023-01-27T07:29:18.293Z,0.20
2023-01-27T07:34:21.320Z,0.30
2023-01-27T07:39:23.063Z,0.30
2023-01-27T07:44:24.892Z,0.30
2023-01-27T07:49:27.953Z,0.30
2023-01-27T07:54:29.708Z,0.40
2023-01-27T07:59:31.443Z,0.40
2023-01-27T08:04:43.489Z,0.50
2023-01-27T08:09:52.713Z,0.50
2023-01-27T08:14:54.373Z,0.60
2023-01-27T08:19:57.390Z,0.70
2023-01-27T08:24:59.143Z,0.80
2023-01-27T08:30:01.044Z,0.90
2023-01-27T08:35:04.633Z,0.90
2023-01-27T08:40:11.329Z,1.00
2023-01-27T08:45:13.296Z,1.00
2023-01-27T08:50:17.842Z,1.10
2023-01-27T08:55:19.581Z,1.30
2023-01-27T09:00:21.661Z,1.30
2023-01-27T09:05:24.746Z,1.30
2023-01-27T09:10:26.477Z,1.30
2023-01-27T09:15:28.132Z,1.30
2023-01-27T09:20:31.449Z,1.30
2023-01-27T09:25:33.121Z,1.40
2023-01-27T09:30:34.838Z,1.50
2023-01-27T09:35:42.771Z,1.50
2023-01-27T09:41:03.477Z,1.50
2023-01-27T09:46:21.895Z,1.60
2023-01-27T09:51:33.983Z,1.60
2023-01-27T09:56:46.202Z,1.60
2023-01-27T10:02:00.711Z,1.70
2023-01-27T10:07:20.460Z,1.60
2023-01-27T10:12:38.690Z,1.60
2023-01-27T10:17:49.440Z,1.70
2023-01-27T10:23:03.015Z,1.70
2023-01-27T10:28:11.673Z,1.70
2023-01-27T10:33:20.538Z,1.80
2023-01-27T10:38:35.812Z,1.70
2023-01-27T10:43:50.244Z,1.80
2023-01-27T10:48:59.741Z,1.80
2023-01-27T10:54:09.624Z,1.90
2023-01-27T10:59:20.268Z,1.90
2023-01-27T11:04:52.221Z,2.00
2023-01-27T11:22:17.559Z,2.20
2023-01-27T11:33:16.627Z,2.30
2023-01-27T11:38:24.533Z,2.50
2023-01-27T11:43:29.311Z,2.60
2023-01-27T11:48:41.504Z,2.60
2023-01-27T11:53:46.136Z,2.70
2023-01-27T11:58:57.478Z,2.60
2023-01-27T12:04:03.579Z,2.60
2023-01-27T12:09:05.287Z,2.50
2023-01-27T12:14:13.609Z,2.50
2023-01-27T12:19:24.635Z,2.50
2023-01-27T12:24:31.689Z,2.60
2023-01-27T12:29:40.327Z,2.60
2023-01-27T12:34:45.674Z,2.70
2023-01-27T12:39:53.224Z,2.80
2023-01-27T12:44:58.684Z,2.90
2023-01-27T12:50:21.349Z,2.90
2023-01-27T12:55:30.554Z,2.90
2023-01-27T13:00:34.731Z,2.90
2023-01-27T13:05:39.195Z,3.00
2023-01-27T13:10:49.906Z,3.00
2023-01-27T13:15:55.918Z,3.10
2023-01-27T13:21:07.237Z,3.10
2023-01-27T13:26:16.544Z,3.10
2023-01-27T13:31:29.411Z,3.10
2023-01-27T13:36:37.730Z,3.20
2023-01-27T13:41:46.605Z,3.30
2023-01-27T13:46:50.802Z,3.20
2023-01-27T13:51:52.677Z,3.30
2023-01-27T13:57:06.688Z,3.30
2023-01-27T14:02:53.962Z,3.30
2023-01-27T14:08:12.226Z,3.40
2023-01-27T14:13:42.385Z,3.40
2023-01-27T14:18:49.023Z,3.40
2023-01-27T14:23:58.572Z,3.40
2023-01-27T14:29:11.686Z,3.40
2023-01-27T14:34:37.185Z,3.40
2023-01-27T14:39:49.666Z,3.40
2023-01-27T14:45:05.400Z,3.40
2023-01-27T14:50:19.423Z,3.40
2023-01-27T14:55:40.255Z,3.40
2023-01-27T15:00:54.565Z,3.40
2023-01-27T15:06:02.750Z,3.40
2023-01-27T15:11:22.324Z,3.40
2023-01-27T15:17:14.091Z,3.40
2023-01-27T15:34:26.394Z,3.40
2023-01-27T15:39:55.715Z,3.40
2023-01-27T15:45:26.406Z,3.30
2023-01-27T15:50:32.005Z,3.30
2023-01-27T15:55:38.142Z,3.30
2023-01-27T16:00:42.098Z,3.20
2023-01-27T16:05:48.780Z,3.20
2023-01-27T16:11:23.275Z,3.20
2023-01-27T16:16:35.123Z,3.20
2023-01-27T16:21:43.948Z,3.20
2023-01-27T16:26:53.871Z,3.20
2023-01-27T16:32:01.971Z,3.20
2023-01-27T16:37:17.513Z,3.10
2023-01-27T16:42:28.698Z,3.10
2023-01-27T16:47:41.246Z,3.00
2023-01-27T16:52:45.759Z,3.00
2023-01-27T16:57:50.145Z,3.10
2023-01-27T17:02:53.589Z,3.00
2023-01-27T17:08:03.048Z,3.20
2023-01-27T17:13:06.210Z,3.20
2023-01-27T17:18:10.642Z,3.10
2023-01-27T17:23:21.687Z,3.00
2023-01-27T17:28:27.425Z,3.10
2023-01-27T17:33:29.422Z,3.10
2023-01-27T17:39:11.341Z,3.10
2023-01-27T17:44:15.199Z,3.20
2023-01-27T17:49:55.352Z,3.20
2023-01-27T17:54:57.838Z,3.10
2023-01-27T18:00:40.384Z,3.10
2023-01-27T18:05:45.190Z,3.20
2023-01-27T18:16:15.922Z,3.10
2023-01-27T18:21:28.349Z,3.10
2023-01-27T18:26:33.416Z,3.10
2023-01-27T18:42:20.866Z,3.10
2023-01-27T18:47:31.750Z,3.10
2023-01-27T18:52:33.728Z,3.00
2023-01-27T19:08:38.469Z,3.00
2023-01-27T19:20:07.216Z,3.00
2023-01-27T19:31:02.262Z,2.90
2023-01-27T19:36:17.868Z,2.90
2023-01-27T19:41:21.879Z,2.90
2023-01-27T19:46:24.131Z,2.90
2023-01-27T19:51:27.838Z,2.80
2023-01-27T19:56:43.434Z,2.80
2023-01-27T20:01:45.269Z,2.90
2023-01-27T20:06:48.328Z,2.80
2023-01-27T20:11:50.079Z,2.80
2023-01-27T20:16:52.320Z,2.70
2023-01-27T20:21:55.420Z,2.80
2023-01-27T20:26:57.263Z,2.60
2023-01-27T20:31:59.203Z,2.60
2023-01-27T20:37:02.456Z,2.60
2023-01-27T20:42:04.318Z,2.60
2023-01-27T20:47:06.113Z,2.40
2023-01-27T20:52:10.406Z,2.50
2023-01-27T20:57:12.163Z,2.50
2023-01-27T21:02:14.286Z,2.50
2023-01-27T21:07:17.444Z,2.60
2023-01-27T21:12:19.273Z,2.50
2023-01-27T21:17:21.158Z,2.50
2023-01-27T21:22:24.381Z,2.60
2023-01-27T21:27:26.503Z,2.50
2023-01-27T21:32:28.344Z,2.50
2023-01-27T21:37:31.494Z,2.50
2023-01-27T21:42:33.254Z,2.50
2023-01-27T21:47:34.937Z,2.50
2023-01-27T21:52:39.652Z,2.50
2023-01-27T21:57:41.561Z,2.50
2023-01-27T22:02:43.841Z,2.40
2023-01-27T22:07:46.893Z,2.40
2023-01-27T22:12:48.715Z,2.40
2023-01-27T22:17:50.458Z,2.40
2023-01-27T22:23:20.562Z,2.40
2023-01-27T22:28:22.347Z,2.50
2023-01-27T22:33:27.099Z,2.40
2023-01-27T22:38:30.134Z,2.50
2023-01-27T22:43:32.248Z,2.40
2023-01-27T22:48:36.833Z,2.40
2023-01-27T23:06:00.349Z,2.30
2023-01-27T23:11:06.887Z,2.20
2023-01-27T23:16:10.745Z,2.20
2023-01-27T23:21:12.525Z,2.10
2023-01-27T23:26:14.305Z,2.10
2023-01-27T23:31:17.544Z,2.10
2023-01-27T23:36:19.373Z,2.10
2023-01-27T23:41:21.117Z,2.10
2023-01-27T23:46:25.020Z,2.00
2023-01-27T23:51:26.894Z,2.00
2023-01-27T23:56:28.772Z,2.00
